Time;durP1;ratioP1;P1;durP2;ratioP2;P2;SDS_P1;SDS_P2;PMS_P1;PMS_P2;Temp;Humidity;BMP_temperature;BMP_pressure;BME280_temperature;BME280_humidity;BME280_pressure;Samples;Min_cycle;Max_cycle;Signal;HPM_P1;HPM_P2
2021/10/23 00:00:43;;;;;;;3.80;1.15;;;;;;;8.99;83.28;101229.59;5043524;28;20048;-52
2021/10/23 00:03:09;;;;;;;4.25;1.10;;;;;;;9.00;83.31;101233.13;5035232;28;20391;-52
2021/10/23 00:05:36;;;;;;;2.95;1.30;;;;;;;9.00;83.35;101231.34;5024347;28;20044;-54
2021/10/23 00:08:03;;;;;;;5.55;1.10;;;;;;;8.99;83.62;101231.38;4986336;28;1158552;-53
2021/10/23 00:10:29;;;;;;;5.90;1.20;;;;;;;8.98;83.62;101238.44;5043751;28;20493;-52
2021/10/23 00:12:56;;;;;;;5.28;1.33;;;;;;;8.98;83.78;101249.00;5037901;28;21011;-52
2021/10/23 00:15:23;;;;;;;2.63;1.00;;;;;;;9.01;84.10;101248.94;5039650;28;20220;-53
2021/10/23 00:17:49;;;;;;;4.45;1.05;;;;;;;9.03;83.91;101254.19;5030597;28;20056;-53
2021/10/23 00:20:17;;;;;;;2.38;1.00;;;;;;;9.02;84.17;101252.44;5042636;28;20410;-51
2021/10/23 00:22:43;;;;;;;4.53;1.00;;;;;;;9.04;83.92;101247.97;5038693;28;20378;-52
2021/10/23 00:25:10;;;;;;;4.28;1.33;;;;;;;9.06;83.58;101251.47;5042600;28;20045;-52
2021/10/23 00:27:36;;;;;;;3.42;1.02;;;;;;;8.89;83.63;101221.97;5036091;28;20044;-52
2021/10/23 00:30:04;;;;;;;5.57;1.08;;;;;;;9.04;83.61;101245.34;5035683;28;20565;-52
2021/10/23 00:32:31;;;;;;;4.38;1.10;;;;;;;9.06;83.25;101247.03;5042950;28;20048;-52
2021/10/23 00:34:58;;;;;;;7.25;1.67;;;;;;;9.01;83.03;101250.69;5043970;28;20045;-53
2021/10/23 00:37:24;;;;;;;4.50;1.15;;;;;;;9.02;83.41;101253.31;5028354;28;20041;-53
2021/10/23 00:39:51;;;;;;;3.60;1.17;;;;;;;9.00;83.77;101257.75;5038878;28;20056;-52
2021/10/23 00:42:17;;;;;;;5.25;1.65;;;;;;;8.87;83.83;101235.22;5040671;28;20042;-51
2021/10/23 00:44:45;;;;;;;4.38;1.20;;;;;;;8.97;83.67;101265.75;5044716;28;20052;-51
2021/10/23 00:47:16;;;;;;;4.90;1.20;;;;;;;8.96;84.20;101265.84;5026884;28;20792;-53
2021/10/23 00:49:44;;;;;;;5.70;1.48;;;;;;;8.96;84.19;101263.19;5035153;28;20056;-52
2021/10/23 00:52:11;;;;;;;5.80;1.10;;;;;;;8.95;84.02;101275.53;5037265;28;20309;-54
2021/10/23 00:54:39;;;;;;;3.55;1.20;;;;;;;8.96;83.70;101287.84;5037477;28;20045;-53
2021/10/23 00:57:06;;;;;;;6.53;1.35;;;;;;;9.00;83.48;101278.03;5030393;28;20065;-52
2021/10/23 00:59:33;;;;;;;3.58;1.13;;;;;;;8.98;83.44;101285.13;5039686;28;20056;-53
2021/10/23 01:02:01;;;;;;;4.68;1.30;;;;;;;8.99;83.78;101290.38;5035128;28;20053;-53
2021/10/23 01:04:27;;;;;;;3.92;1.33;;;;;;;9.02;82.98;101292.06;5042697;28;20083;-53
2021/10/23 01:06:54;;;;;;;2.67;1.00;;;;;;;9.01;82.93;101295.63;5028343;28;20403;-52
2021/10/23 01:09:21;;;;;;;4.43;1.00;;;;;;;9.04;83.19;101290.25;5042460;28;20553;-52
2021/10/23 01:11:48;;;;;;;5.15;1.33;;;;;;;9.00;82.89;101288.59;5049372;28;20103;-51
2021/10/23 01:14:18;;;;;;;5.53;1.25;;;;;;;9.02;82.59;101290.28;5039054;28;20514;-53
2021/10/23 01:16:46;;;;;;;9.60;1.57;;;;;;;9.01;82.72;101295.63;5029420;28;20572;-52
2021/10/23 01:19:14;;;;;;;4.63;1.67;;;;;;;9.03;83.12;101299.97;5033484;28;20148;-52
2021/10/23 01:21:40;;;;;;;4.63;1.70;;;;;;;9.01;82.77;101295.63;5038082;28;20045;-52
2021/10/23 01:24:08;;;;;;;6.00;1.30;;;;;;;8.98;83.44;101293.91;5036014;28;20047;-52
2021/10/23 01:26:36;;;;;;;6.78;1.83;;;;;;;8.93;83.18;101293.19;5028649;28;20686;-52
2021/10/23 01:29:04;;;;;;;6.18;1.55;;;;;;;8.90;83.26;101301.19;5039331;28;20052;-52
2021/10/23 01:31:30;;;;;;;6.20;1.35;;;;;;;8.87;83.61;101300.38;5033675;28;20049;-51
2021/10/23 01:33:57;;;;;;;4.00;1.35;;;;;;;8.84;83.78;101308.38;5034266;28;20052;-52
2021/10/23 01:36:24;;;;;;;3.28;1.30;;;;;;;8.83;84.02;101304.88;5039499;28;20045;-52
2021/10/23 01:38:51;;;;;;;4.53;1.25;;;;;;;8.84;84.30;101318.94;5034755;28;20505;-52
2021/10/23 01:41:17;;;;;;;4.22;1.20;;;;;;;8.75;84.24;101304.22;5041172;28;20530;-52
2021/10/23 01:43:44;;;;;;;4.45;1.65;;;;;;;8.81;84.30;101324.34;5032183;28;20045;-53
2021/10/23 01:46:10;;;;;;;4.10;1.35;;;;;;;8.75;84.45;101320.94;5036870;28;20041;-53
2021/10/23 01:48:37;;;;;;;5.05;1.42;;;;;;;8.76;84.08;101317.38;5025197;28;20122;-53
2021/10/23 01:51:05;;;;;;;4.50;1.30;;;;;;;8.67;84.54;101307.03;5031007;28;20041;-53
2021/10/23 01:53:33;;;;;;;6.60;1.83;;;;;;;8.74;84.65;101311.28;5035089;28;20417;-52
2021/10/23 01:56:03;;;;;;;6.18;1.60;;;;;;;8.72;84.83;101312.22;5040561;28;20291;-53
2021/10/23 01:58:30;;;;;;;4.95;1.35;;;;;;;8.70;84.98;101314.88;5028188;28;20513;-53
2021/10/23 02:00:57;;;;;;;5.43;1.50;;;;;;;8.68;85.09;101316.69;5033195;28;20045;-52
2021/10/23 02:03:24;;;;;;;3.45;1.63;;;;;;;8.66;84.88;101317.63;5033003;28;20054;-53
2021/10/23 02:05:50;;;;;;;6.32;1.33;;;;;;;8.55;85.26;101298.53;5042646;28;20045;-52
2021/10/23 02:08:17;;;;;;;3.17;1.42;;;;;;;8.65;85.44;101316.78;5025437;28;20049;-52
2021/10/23 02:10:44;;;;;;;3.88;1.20;;;;;;;8.66;85.59;101320.28;5043252;28;20049;-53
2021/10/23 02:13:11;;;;;;;3.25;1.10;;;;;;;8.67;85.30;101320.22;5035992;28;20528;-53
2021/10/23 02:15:37;;;;;;;4.38;1.30;;;;;;;8.67;85.28;101322.88;5040536;28;20347;-52
2021/10/23 02:18:03;;;;;;;4.45;1.48;;;;;;;8.65;84.97;101319.44;5029359;28;20111;-53
2021/10/23 02:20:34;;;;;;;4.95;1.40;;;;;;;8.60;84.96;101320.44;5035062;28;20049;-53
2021/10/23 02:23:01;;;;;;;5.55;1.42;;;;;;;8.56;85.44;101303.78;5038735;28;20129;-61
2021/10/23 02:25:28;;;;;;;3.65;1.38;;;;;;;8.56;85.60;101318.75;5046563;28;20053;-54
2021/10/23 02:27:54;;;;;;;5.88;1.48;;;;;;;8.55;85.70;101323.19;5043236;28;20041;-52
2021/10/23 02:30:21;;;;;;;3.67;1.15;;;;;;;8.48;85.86;101307.53;5054179;28;20052;-52
2021/10/23 02:32:48;;;;;;;4.63;1.30;;;;;;;8.55;86.11;101323.19;5043832;28;20494;-51
2021/10/23 02:35:14;;;;;;;4.15;1.30;;;;;;;8.52;86.24;101323.25;5036550;28;20068;-51
2021/10/23 02:37:41;;;;;;;4.88;1.48;;;;;;;8.55;86.05;101320.53;5028963;28;20045;-51
2021/10/23 02:40:08;;;;;;;3.63;1.35;;;;;;;8.54;85.85;101317.94;5038195;28;20410;-52
2021/10/23 02:42:34;;;;;;;6.22;1.50;;;;;;;8.50;85.89;101314.50;5036321;28;20089;-53
2021/10/23 02:45:01;;;;;;;3.63;1.55;;;;;;;8.49;86.24;101312.78;5038276;28;20052;-52
2021/10/23 02:47:28;;;;;;;3.35;1.30;;;;;;;8.47;86.78;101311.94;5031357;28;20986;-51
2021/10/23 02:49:54;;;;;;;3.67;1.60;;;;;;;8.47;86.50;101313.72;5032802;28;20076;-51
2021/10/23 02:52:21;;;;;;;3.97;1.40;;;;;;;8.44;86.59;101312.00;5035810;28;20052;-53
2021/10/23 02:54:47;;;;;;;4.57;1.55;;;;;;;8.41;86.88;101309.44;5039110;28;20041;-55
2021/10/23 02:57:14;;;;;;;4.55;1.48;;;;;;;8.39;86.90;101309.47;5033340;28;20498;-53
2021/10/23 02:59:42;;;;;;;4.30;1.50;;;;;;;8.39;87.28;101312.13;5032178;28;20037;-52
2021/10/23 03:02:08;;;;;;;3.00;1.23;;;;;;;8.37;87.48;101299.84;5044566;28;20059;-53
2021/10/23 03:04:35;;;;;;;4.70;1.50;;;;;;;8.38;87.64;101298.94;5045812;28;20064;-52
2021/10/23 03:07:02;;;;;;;4.22;1.42;;;;;;;8.35;87.76;101304.28;5040708;28;20068;-51
2021/10/23 03:09:28;;;;;;;4.03;2.13;;;;;;;8.39;87.56;101308.59;5035023;28;20048;-53
2021/10/23 03:11:55;;;;;;;6.32;1.73;;;;;;;8.39;87.83;101306.84;5042460;28;20492;-53
2021/10/23 03:14:21;;;;;;;4.20;1.63;;;;;;;8.37;87.91;101302.50;5035619;28;20053;-53
2021/10/23 03:16:48;;;;;;;7.65;2.10;;;;;;;8.41;88.31;101306.81;5040271;28;20048;-53
2021/10/23 03:19:14;;;;;;;9.32;2.03;;;;;;;8.44;88.33;101312.00;5030183;28;20053;-52
2021/10/23 03:21:41;;;;;;;5.72;1.70;;;;;;;8.47;88.09;101306.66;5035068;28;20048;-53
2021/10/23 03:24:07;;;;;;;6.15;1.88;;;;;;;8.46;87.80;101312.84;5035659;28;20041;-52
2021/10/23 03:26:34;;;;;;;5.72;2.17;;;;;;;8.47;87.69;101304.03;5039721;28;20401;-53
2021/10/23 03:29:01;;;;;;;4.43;1.50;;;;;;;8.48;87.96;101311.03;5030940;28;20063;-53
2021/10/23 03:31:27;;;;;;;4.22;1.60;;;;;;;8.53;87.45;101316.19;5040328;28;20049;-54
2021/10/23 03:33:54;;;;;;;5.45;1.60;;;;;;;8.54;87.33;101310.00;5036130;28;20342;-53
2021/10/23 03:36:20;;;;;;;5.18;2.10;;;;;;;8.53;87.09;101324.13;5042894;28;20053;-53
2021/10/23 03:38:47;;;;;;;5.63;2.40;;;;;;;8.51;87.58;101316.22;5031509;28;20356;-53
2021/10/23 03:41:13;;;;;;;6.57;1.80;;;;;;;8.51;87.64;101324.16;5046598;28;20453;-53
2021/10/23 03:43:40;;;;;;;2.95;1.65;;;;;;;8.49;87.90;101312.78;5039075;28;20388;-51
2021/10/23 03:46:06;;;;;;;5.07;2.08;;;;;;;8.51;88.13;101310.06;5043977;28;20049;-52
2021/10/23 03:48:33;;;;;;;5.50;2.08;;;;;;;8.52;88.13;101314.47;5024710;28;20053;-53
2021/10/23 03:51:00;;;;;;;6.53;1.98;;;;;;;8.51;88.09;101320.63;5042798;28;20469;-54
2021/10/23 03:53:27;;;;;;;5.32;2.15;;;;;;;8.51;88.14;101315.34;5037367;28;20049;-55
2021/10/23 03:55:53;;;;;;;7.32;2.40;;;;;;;8.53;88.27;101314.41;5042130;28;20799;-52
2021/10/23 03:58:19;;;;;;;4.20;2.15;;;;;;;8.53;88.39;101319.69;5031960;28;20414;-53
2021/10/23 04:00:46;;;;;;;4.55;1.95;;;;;;;8.53;88.37;101322.34;5048201;28;20045;-52
2021/10/23 04:03:13;;;;;;;3.85;1.92;;;;;;;8.34;88.42;101294.66;5039802;28;20110;-52
2021/10/23 04:05:40;;;;;;;5.47;1.80;;;;;;;8.50;88.16;101338.25;5041232;28;20040;-53
2021/10/23 04:08:06;;;;;;;4.68;1.98;;;;;;;8.47;88.76;101340.97;5029506;28;20049;-53
2021/10/23 04:10:33;;;;;;;4.63;2.17;;;;;;;8.48;88.76;101353.28;5041406;28;20044;-52
2021/10/23 04:12:59;;;;;;;4.78;1.90;;;;;;;8.51;nan;101362.88;5029915;28;20321;-53
2021/10/23 04:15:26;;;;;;;5.55;1.70;;;;;;;8.49;88.59;101357.66;5052404;28;20048;-53
2021/10/23 04:17:52;;;;;;;3.88;1.85;;;;;;;8.48;88.62;101363.84;5033536;28;20643;-52
2021/10/23 04:20:19;;;;;;;5.72;1.88;;;;;;;8.48;88.93;101362.97;5037625;28;20049;-52
2021/10/23 04:22:45;;;;;;;6.20;2.17;;;;;;;8.36;88.90;101350.91;5034331;28;20052;-53
2021/10/23 04:25:12;;;;;;;6.50;2.30;;;;;;;8.51;88.51;101369.03;5040524;28;20411;-53
2021/10/23 04:27:39;;;;;;;5.75;2.22;;;;;;;8.40;88.74;101364.00;5034366;28;20052;-52
2021/10/23 04:30:06;;;;;;;6.25;2.40;;;;;;;8.49;88.39;101386.69;5038577;28;20048;-52
2021/10/23 04:32:32;;;;;;;4.75;2.53;;;;;;;8.44;89.10;101378.00;5037336;28;20040;-54
2021/10/23 04:34:59;;;;;;;5.95;2.40;;;;;;;8.39;88.72;101371.94;5034163;28;20079;-54
2021/10/23 04:37:25;;;;;;;4.85;2.05;;;;;;;8.32;89.00;101380.91;5036502;28;20049;-52
2021/10/23 04:39:52;;;;;;;6.18;2.67;;;;;;;8.27;88.87;101380.97;5036532;28;20427;-53
2021/10/23 04:42:18;;;;;;;5.88;2.30;;;;;;;8.22;88.76;101371.41;5042644;28;20048;-53
2021/10/23 04:44:45;;;;;;;4.93;2.55;;;;;;;8.13;89.43;101369.00;5038060;28;20068;-52
2021/10/23 04:47:11;;;;;;;7.88;2.58;;;;;;;8.07;89.95;101369.97;5036974;28;20052;-52
2021/10/23 04:49:38;;;;;;;5.47;2.33;;;;;;;8.05;90.17;101379.69;5032534;28;20386;-52
2021/10/23 04:52:04;;;;;;;6.80;2.50;;;;;;;8.06;90.63;101392.84;5043253;28;20036;-54
2021/10/23 04:54:31;;;;;;;8.43;2.53;;;;;;;7.89;90.47;101378.25;5031428;28;20505;-53
2021/10/23 04:56:57;;;;;;;5.00;2.35;;;;;;;7.98;90.71;101399.19;5044158;28;20041;-53
2021/10/23 04:59:24;;;;;;;4.05;2.13;;;;;;;7.96;90.74;101398.34;5025758;28;20282;-53
2021/10/23 05:01:50;;;;;;;6.80;2.05;;;;;;;7.92;90.52;101392.25;5040091;28;20057;-52
2021/10/23 05:04:17;;;;;;;4.10;2.03;;;;;;;7.83;90.39;101395.09;5039822;28;20385;-53
2021/10/23 05:06:43;;;;;;;4.03;2.13;;;;;;;7.80;91.05;101389.88;5048135;28;20047;-53
2021/10/23 05:09:10;;;;;;;5.10;2.05;;;;;;;7.73;91.12;101385.59;5027021;28;20067;-54
2021/10/23 05:11:37;;;;;;;4.72;2.00;;;;;;;7.69;91.88;101398.00;5033039;28;20041;-52
2021/10/23 05:14:03;;;;;;;4.00;2.10;;;;;;;7.67;91.93;101397.16;5031331;28;20124;-53
2021/10/23 05:16:30;;;;;;;5.20;2.25;;;;;;;7.66;92.31;101400.69;5039051;28;20044;-53
2021/10/23 05:18:56;;;;;;;2.97;1.70;;;;;;;7.66;92.04;101399.81;5026020;28;20041;-53
2021/10/23 05:21:23;;;;;;;4.63;1.80;;;;;;;7.62;91.86;101391.09;5034592;28;20044;-53
2021/10/23 05:23:52;;;;;;;4.97;2.03;;;;;;;7.59;92.30;101390.28;5036349;28;20063;-52
2021/10/23 05:26:18;;;;;;;3.58;1.98;;;;;;;7.55;92.78;101375.44;5041555;28;20045;-52
2021/10/23 05:28:45;;;;;;;6.97;2.30;;;;;;;7.57;92.95;101379.75;5025677;28;20060;-51
2021/10/23 05:31:11;;;;;;;4.40;2.08;;;;;;;7.56;93.00;101377.16;5029727;28;20343;-52
2021/10/23 05:33:38;;;;;;;6.88;2.22;;;;;;;7.57;93.17;101371.84;5027724;28;20049;-53
2021/10/23 05:36:04;;;;;;;4.38;1.90;;;;;;;7.57;93.45;101369.22;5042773;28;20037;-52
2021/10/23 05:38:31;;;;;;;6.18;2.63;;;;;;;7.59;93.45;101362.16;5028895;28;20053;-52
2021/10/23 05:40:58;;;;;;;6.30;2.58;;;;;;;7.61;93.48;101359.50;5031764;28;20141;-52
2021/10/23 05:43:24;;;;;;;6.78;2.45;;;;;;;7.60;93.48;101353.34;5037629;28;20069;-53
2021/10/23 05:45:51;;;;;;;4.15;2.08;;;;;;;7.59;93.37;101351.59;5042599;28;20055;-54
2021/10/23 05:48:18;;;;;;;3.95;2.15;;;;;;;7.59;93.24;101342.84;5034401;28;20682;-53
2021/10/23 05:50:45;;;;;;;5.15;2.63;;;;;;;7.55;93.50;101351.72;5029929;28;20040;-52
2021/10/23 05:53:12;;;;;;;4.90;2.10;;;;;;;7.51;93.67;101355.31;5038818;28;20060;-53
2021/10/23 05:55:38;;;;;;;6.55;2.30;;;;;;;7.50;93.55;101366.75;5043508;28;20066;-53
2021/10/23 05:58:05;;;;;;;7.22;2.63;;;;;;;7.50;93.73;101377.28;5028706;28;20310;-53
2021/10/23 06:00:36;;;;;;;5.18;2.97;;;;;;;7.49;93.98;101389.59;5028205;28;20037;-53
2021/10/23 06:03:03;;;;;;;7.47;2.78;;;;;;;7.47;94.05;101386.13;5034520;28;20049;-53
2021/10/23 06:05:32;;;;;;;6.30;3.22;;;;;;;7.50;94.60;101398.38;5036324;28;20040;-53
2021/10/23 06:07:58;;;;;;;5.10;2.83;;;;;;;7.55;94.53;101402.69;5038617;28;20139;-52
2021/10/23 06:10:25;;;;;;;8.85;3.55;;;;;;;7.62;94.28;101422.72;5033189;28;20044;-52
2021/10/23 06:12:51;;;;;;;7.22;3.20;;;;;;;7.66;94.30;101432.31;5037078;28;20041;-53
2021/10/23 06:15:18;;;;;;;6.15;3.20;;;;;;;7.67;94.47;101435.84;5041989;28;20067;-55
2021/10/23 06:17:44;;;;;;;7.40;3.00;;;;;;;7.74;94.32;101448.00;5040199;28;20087;-53
2021/10/23 06:20:11;;;;;;;6.82;3.50;;;;;;;7.79;94.21;101446.16;5025830;28;20131;-52
2021/10/23 06:22:47;;;;;;;8.50;4.53;;;;;;;7.85;94.40;101443.41;5034430;28;20053;-55
2021/10/23 06:25:17;;;;;;;11.25;4.05;;;;;;;7.90;94.27;101453.84;5040884;28;20040;-53
2021/10/23 06:27:45;;;;;;;8.00;3.63;;;;;;;7.94;94.25;101452.91;5028580;28;20128;-53
2021/10/23 06:30:12;;;;;;;8.85;4.10;;;;;;;8.02;94.26;101461.53;5026029;28;20051;-53
2021/10/23 06:32:49;;;;;;;5.85;3.83;;;;;;;8.03;93.54;101460.63;5039996;28;20044;-53
2021/10/23 06:35:16;;;;;;;10.13;3.80;;;;;;;8.01;93.61;101458.03;5041209;28;20052;-52
2021/10/23 06:37:43;;;;;;;7.57;3.88;;;;;;;8.04;93.55;101460.59;5044267;28;20037;-52
2021/10/23 06:40:10;;;;;;;9.20;3.80;;;;;;;8.07;93.51;101468.44;5036552;28;20512;-54
2021/10/23 06:42:41;;;;;;;6.28;3.30;;;;;;;8.11;93.22;101464.00;5038240;28;20052;-53
2021/10/23 06:45:11;;;;;;;8.45;3.83;;;;;;;8.17;92.90;101470.94;5043736;28;20037;-52
2021/10/23 06:47:38;;;;;;;8.75;3.88;;;;;;;8.17;92.19;101463.88;5041255;28;20041;-52
2021/10/23 06:50:07;;;;;;;6.07;3.53;;;;;;;8.16;92.09;101461.28;5034012;28;20048;-51
2021/10/23 06:52:34;;;;;;;7.95;3.47;;;;;;;8.21;92.04;101470.81;5040849;28;20044;-52
2021/10/23 06:55:01;;;;;;;7.53;3.25;;;;;;;8.25;91.84;101471.63;5033763;28;20103;-52
2021/10/23 06:57:27;;;;;;;7.75;4.40;;;;;;;8.28;92.01;101472.44;5046100;28;20045;-53
2021/10/23 06:59:55;;;;;;;8.45;4.22;;;;;;;8.31;91.72;101468.88;5030244;28;20069;-52
2021/10/23 07:02:21;;;;;;;9.68;3.90;;;;;;;8.35;90.77;101474.06;5040860;28;20049;-53
2021/10/23 07:04:48;;;;;;;7.95;3.85;;;;;;;8.36;91.02;101469.66;5042366;28;20044;-53
2021/10/23 07:07:14;;;;;;;8.27;4.15;;;;;;;8.42;90.96;101470.41;5042201;28;20056;-53
2021/10/23 07:09:41;;;;;;;8.52;3.85;;;;;;;8.47;91.30;101485.28;5031811;28;20456;-52
2021/10/23 07:12:07;;;;;;;8.80;4.13;;;;;;;8.50;91.19;101486.06;5038277;28;20374;-52
2021/10/23 07:14:34;;;;;;;12.15;4.55;;;;;;;8.56;90.80;101496.53;5036785;28;20047;-51
2021/10/23 07:17:00;;;;;;;11.20;4.38;;;;;;;8.60;90.50;101490.28;5034462;28;20563;-52
2021/10/23 07:19:27;;;;;;;9.35;4.57;;;;;;;8.62;90.14;101504.31;5036943;28;20063;-54
2021/10/23 07:21:53;;;;;;;7.55;4.35;;;;;;;8.53;90.32;101490.44;5031440;28;20049;-53
2021/10/23 07:24:20;;;;;;;6.85;4.25;;;;;;;8.64;90.44;101515.72;5038410;28;20044;-54
2021/10/23 07:26:47;;;;;;;8.15;4.40;;;;;;;8.65;89.93;101517.47;5040960;28;20045;-53
2021/10/23 07:29:13;;;;;;;8.23;4.80;;;;;;;8.72;90.75;101524.34;5031544;28;20429;-52
2021/10/23 07:31:40;;;;;;;8.30;4.05;;;;;;;8.79;89.91;101530.38;5039494;28;20131;-51
2021/10/23 07:34:07;;;;;;;8.32;4.50;;;;;;;8.84;89.08;101533.75;5043826;28;20040;-51
2021/10/23 07:36:33;;;;;;;5.90;3.97;;;;;;;8.87;88.41;101519.63;5039537;28;20056;-52
2021/10/23 07:39:00;;;;;;;6.13;3.80;;;;;;;8.97;87.70;101527.28;5035777;28;20063;-53
2021/10/23 07:41:26;;;;;;;8.90;4.35;;;;;;;8.97;86.99;101522.00;5037889;28;20520;-52
2021/10/23 07:43:53;;;;;;;8.30;4.20;;;;;;;8.99;86.79;101536.06;5038149;28;20052;-53
2021/10/23 07:46:19;;;;;;;6.72;4.50;;;;;;;9.02;86.35;101540.41;5041223;28;20075;-53
2021/10/23 07:48:46;;;;;;;8.35;4.95;;;;;;;9.04;86.86;101543.91;5037512;28;20055;-51
2021/10/23 07:51:14;;;;;;;11.40;5.18;;;;;;;9.12;87.38;101549.88;5032892;28;20045;-51
2021/10/23 07:53:40;;;;;;;8.80;5.28;;;;;;;9.17;86.99;101558.56;5040481;28;20045;-52
2021/10/23 07:56:07;;;;;;;12.93;5.68;;;;;;;9.27;86.93;101568.03;5040397;28;20477;-54
2021/10/23 07:58:33;;;;;;;11.73;5.50;;;;;;;9.32;85.92;101560.84;5040907;28;20049;-53
2021/10/23 08:01:01;;;;;;;13.10;5.35;;;;;;;9.37;85.64;101561.63;5036314;28;20059;-52
2021/10/23 08:03:28;;;;;;;8.63;5.20;;;;;;;9.43;85.90;101565.91;5043784;28;20086;-52
2021/10/23 08:05:55;;;;;;;11.45;5.47;;;;;;;9.40;85.05;101553.63;5040603;28;20056;-52
2021/10/23 08:08:22;;;;;;;11.07;5.40;;;;;;;9.38;85.44;101563.38;5042907;28;20433;-53
2021/10/23 08:10:48;;;;;;;7.13;5.82;;;;;;;9.40;85.39;101569.50;5032209;28;20041;-52
2021/10/23 08:13:15;;;;;;;8.77;5.97;;;;;;;9.44;85.81;101571.13;5037257;28;20056;-52
2021/10/23 08:15:41;;;;;;;10.63;5.65;;;;;;;9.52;84.87;101572.75;5043826;28;20052;-53
2021/10/23 08:18:08;;;;;;;10.18;5.40;;;;;;;9.61;83.90;101578.66;5030732;28;20041;-52
2021/10/23 08:20:35;;;;;;;9.40;5.22;;;;;;;9.70;83.09;101589.03;5030768;28;20049;-52
2021/10/23 08:23:03;;;;;;;11.20;5.30;;;;;;;9.81;83.26;101588.78;5032618;28;20049;-52
2021/10/23 08:25:30;;;;;;;9.05;4.97;;;;;;;9.97;82.61;101584.81;5033375;28;20037;-53
2021/10/23 08:27:56;;;;;;;9.15;4.50;;;;;;;10.06;81.01;101589.91;5034366;28;20049;-52
2021/10/23 08:30:23;;;;;;;9.32;4.68;;;;;;;10.06;80.83;101592.56;5032721;28;20050;-53
2021/10/23 08:32:49;;;;;;;9.50;5.10;;;;;;;10.01;80.52;101599.72;5042112;28;20497;-51
2021/10/23 08:35:18;;;;;;;7.63;4.70;;;;;;;10.03;80.85;101602.34;5039390;28;20042;-53
2021/10/23 08:37:46;;;;;;;8.05;5.13;;;;;;;10.06;81.03;101597.84;5039392;28;20041;-52
2021/10/23 08:40:13;;;;;;;7.50;4.50;;;;;;;10.21;81.14;101606.31;5029780;28;20056;-52
2021/10/23 08:42:41;;;;;;;11.18;4.95;;;;;;;10.40;80.25;101602.25;5043738;28;20485;-51
2021/10/23 08:45:10;;;;;;;10.13;5.05;;;;;;;10.49;79.88;101604.66;5037625;28;20055;-52
2021/10/23 08:47:37;;;;;;;7.43;4.50;;;;;;;10.55;78.96;101597.41;5039269;28;20048;-52
2021/10/23 08:50:06;;;;;;;9.38;4.85;;;;;;;10.61;78.82;101596.38;5028508;28;20057;-53
2021/10/23 08:52:33;;;;;;;7.85;4.70;;;;;;;10.72;79.13;101596.06;5039400;28;20493;-53
2021/10/23 08:55:00;;;;;;;6.72;3.95;;;;;;;10.81;78.21;101595.81;5039595;28;20053;-54
2021/10/23 08:57:28;;;;;;;10.63;4.35;;;;;;;10.87;76.31;101608.88;5044682;28;20056;-53
2021/10/23 08:59:58;;;;;;;6.32;3.85;;;;;;;10.85;76.51;101616.91;5029578;28;20053;-52
2021/10/23 09:02:26;;;;;;;7.60;4.18;;;;;;;10.71;76.19;101599.63;5040874;28;20329;-51
2021/10/23 09:04:56;;;;;;;7.55;3.60;;;;;;;10.70;76.71;101600.56;5038300;28;20056;-52
2021/10/23 09:07:23;;;;;;;8.18;3.92;;;;;;;10.74;75.58;101624.25;5042515;28;20431;-52
2021/10/23 09:09:51;;;;;;;10.43;4.20;;;;;;;10.59;75.74;101592.91;5030928;28;20056;-52
2021/10/23 09:12:20;;;;;;;8.68;4.20;;;;;;;10.84;76.46;101620.47;5032330;28;20056;-52
2021/10/23 09:14:55;;;;;;;7.70;3.70;;;;;;;10.98;75.10;101617.41;5041841;28;20076;-52
2021/10/23 09:17:21;;;;;;;6.40;3.90;;;;;;;11.02;75.36;101623.50;5041983;28;20435;-52
2021/10/23 09:19:50;;;;;;;7.00;3.30;;;;;;;11.00;75.09;101604.97;5031684;28;20480;-54
2021/10/23 09:22:34;;;;;;;10.38;3.78;;;;;;;11.15;75.46;101630.16;5032995;28;20056;-51
2021/10/23 09:25:14;;;;;;;9.07;4.43;;;;;;;11.21;74.99;101629.97;5036002;28;20399;-53
2021/10/23 09:27:53;;;;;;;8.70;3.90;;;;;;;11.35;73.96;101630.41;5038135;28;20049;-51
2021/10/23 09:30:31;;;;;;;6.57;3.63;;;;;;;11.40;72.61;101631.16;5030318;28;20048;-52
2021/10/23 09:33:23;;;;;;;9.10;3.40;;;;;;;11.44;73.99;101645.19;5034713;28;20500;-51
2021/10/23 09:36:03;;;;;;;6.65;3.10;;;;;;;11.55;73.65;101648.38;5038194;28;20052;-52
2021/10/23 09:38:33;;;;;;;5.18;3.00;;;;;;;11.57;72.45;101636.81;5040756;28;20056;-52
2021/10/23 09:41:13;;;;;;;8.85;3.80;;;;;;;11.60;71.23;101636.72;5025765;28;20042;-52
2021/10/23 09:43:40;;;;;;;5.95;2.90;;;;;;;11.66;71.64;101632.09;5036492;28;20040;-55
2021/10/23 09:46:11;;;;;;;7.72;3.47;;;;;;;11.79;72.39;101639.69;5038193;28;20053;-53
2021/10/23 09:48:58;;;;;;;5.78;2.97;;;;;;;11.92;71.54;101642.81;5036391;28;20060;-52
2021/10/23 09:51:29;;;;;;;9.15;3.42;;;;;;;12.01;71.23;101639.84;5029530;28;20064;-52
2021/10/23 09:53:55;;;;;;;;;;;;;;;12.08;70.80;101636.06;5034511;28;20043;-52
2021/10/23 09:56:24;;;;;;;5.95;3.10;;;;;;;12.11;70.61;101633.31;5038721;28;20310;-52
2021/10/23 09:59:01;;;;;;;12.68;3.70;;;;;;;12.32;70.49;101636.13;5038687;28;20378;-53
2021/10/23 10:01:31;;;;;;;6.95;3.83;;;;;;;12.42;69.36;101640.25;5028363;28;20433;-52
2021/10/23 10:04:04;;;;;;;5.82;3.33;;;;;;;12.51;68.91;101642.56;5038484;28;20609;-52
2021/10/23 10:06:45;;;;;;;9.32;3.50;;;;;;;12.57;68.18;101639.69;5038240;28;20220;-50
2021/10/23 10:09:19;;;;;;;8.52;3.58;;;;;;;12.51;68.75;101637.25;5041682;28;20045;-52
2021/10/23 10:11:49;;;;;;;9.32;3.00;;;;;;;12.65;68.42;101641.16;5034093;28;20041;-53
2021/10/23 10:14:20;;;;;;;8.45;3.17;;;;;;;12.75;67.02;101643.50;5036320;28;20045;-52
2021/10/23 10:16:48;;;;;;;7.70;3.55;;;;;;;12.94;66.90;101639.22;5045918;28;20524;-54
2021/10/23 10:19:16;;;;;;;7.40;3.20;;;;;;;13.17;66.29;101641.06;5039898;28;20041;-53
2021/10/23 10:21:42;;;;;;;6.95;3.53;;;;;;;12.99;66.94;101645.25;5033861;28;20461;-53
2021/10/23 10:24:24;;;;;;;7.63;3.60;;;;;;;13.00;66.42;101653.16;5044798;28;20473;-53
2021/10/23 10:27:17;;;;;;;5.80;3.35;;;;;;;12.98;65.80;101652.34;5041798;28;20585;-54
2021/10/23 10:29:58;;;;;;;7.07;3.03;;;;;;;12.94;66.09;101660.47;5033889;28;20049;-54
2021/10/23 10:32:36;;;;;;;5.75;3.17;;;;;;;12.87;66.74;101659.84;5032455;28;20048;-52
2021/10/23 10:35:27;;;;;;;7.55;3.40;;;;;;;12.79;66.64;101655.72;5036702;28;20186;-52
2021/10/23 10:38:03;;;;;;;6.10;3.10;;;;;;;12.64;66.35;101657.13;5033048;28;20045;-53
2021/10/23 10:42:42;;;;;;;6.47;3.22;;;;;;;12.62;67.32;101651.88;5034993;28;20461;-52
2021/10/23 10:44:08;;;;;;;6.20;3.15;;;;;;;12.75;66.86;101654.13;5042482;28;20048;-52
2021/10/23 10:46:56;;;;;;;5.60;2.67;;;;;;;12.77;65.98;101655.78;5043897;28;20459;-52
2021/10/23 10:49:50;;;;;;;7.80;2.80;;;;;;;12.78;67.00;101646.88;5038207;28;20036;-52
2021/10/23 10:52:39;;;;;;;7.72;3.17;;;;;;;12.81;65.92;101657.41;5041297;28;20399;-53
2021/10/23 10:55:16;;;;;;;7.53;3.00;;;;;;;12.87;66.79;101653.69;5051475;28;20606;-52
2021/10/23 10:58:05;;;;;;;9.68;3.10;;;;;;;12.89;65.86;101658.00;5036415;28;20076;-53
2021/10/23 11:01:00;;;;;;;5.97;3.05;;;;;;;12.94;65.67;101658.69;5019831;28;20086;-52
2021/10/23 11:03:45;;;;;;;7.43;3.10;;;;;;;12.86;65.91;101650.16;5020437;28;20072;-52
2021/10/23 11:06:35;;;;;;;7.82;2.97;;;;;;;12.81;67.04;101654.75;5052487;28;20037;-52
2021/10/23 11:09:11;;;;;;;8.98;3.20;;;;;;;12.85;67.17;101653.72;5035746;28;20125;-52
2021/10/23 11:11:47;;;;;;;8.57;2.58;;;;;;;12.94;67.54;101650.72;5031368;28;20470;-52
2021/10/23 11:14:19;;;;;;;6.22;2.88;;;;;;;13.17;67.15;101647.25;5041355;28;20200;-54
2021/10/23 11:16:55;;;;;;;5.97;3.20;;;;;;;13.23;66.38;101648.78;5042554;28;20084;-53
2021/10/23 11:19:28;;;;;;;7.80;3.63;;;;;;;13.25;65.38;101654.91;5041350;28;20463;-52
2021/10/23 11:22:02;;;;;;;6.05;2.67;;;;;;;13.15;65.87;101648.22;5032945;28;20045;-52
2021/10/23 11:24:44;;;;;;;8.95;3.70;;;;;;;13.08;66.27;101644.00;5042887;28;20060;-52
2021/10/23 11:27:27;;;;;;;8.93;3.13;;;;;;;12.90;65.79;101646.47;5041824;28;20382;-52
2021/10/23 11:30:29;;;;;;;6.95;2.80;;;;;;;12.74;66.81;101649.72;5042866;28;20701;-53
2021/10/23 11:32:57;;;;;;;5.13;2.72;;;;;;;12.62;67.15;101637.72;5035344;28;20071;-52
2021/10/23 11:35:44;;;;;;;7.63;2.60;;;;;;;12.66;67.74;101639.34;5041630;28;20048;-53
2021/10/23 11:38:18;;;;;;;9.02;3.25;;;;;;;12.68;68.24;101639.31;5036104;28;20071;-52
2021/10/23 11:40:45;;;;;;;7.93;2.80;;;;;;;12.63;67.17;101634.16;5035374;28;20095;-53